sensor_id;sensor_type;location;lat;lon;timestamp;pressure;altitude;pressure_sealevel;temperature;humidity
34925;BME280;21130;51.728;8.748;2023-01-23T00:01:54;102174.91;;;-0.32;100.00
34925;BME280;21130;51.728;8.748;2023-01-23T00:04:20;102180.38;;;-0.32;100.00
34925;BME280;21130;51.728;8.748;2023-01-23T00:06:46;102176.72;;;-0.42;100.00
34925;BME280;21130;51.728;8.748;2023-01-23T00:09:14;102177.84;;;-0.45;100.00
34925;BME280;21130;51.728;8.748;2023-01-23T00:11:41;102173.34;;;-0.46;100.00
34925;BME280;21130;51.728;8.748;2023-01-23T00:14:08;102174.84;;;-0.41;100.00
34925;BME280;21130;51.728;8.748;2023-01-23T00:16:36;102177.03;;;-0.35;100.00
34925;BME280;21130;51.728;8.748;2023-01-23T00:19:03;102173.72;;;-0.39;100.00
34925;BME280;21130;51.728;8.748;2023-01-23T00:21:30;102184.97;;;-0.32;100.00
34925;BME280;21130;51.728;8.748;2023-01-23T00:23:58;102183.84;;;-0.30;100.00
34925;BME280;21130;51.728;8.748;2023-01-23T00:26:28;102176.91;;;-0.34;100.00
34925;BME280;21130;51.728;8.748;2023-01-23T00:28:56;102167.38;;;-0.39;100.00
34925;BME280;21130;51.728;8.748;2023-01-23T00:31:24;102169.47;;;-0.32;100.00
34925;BME280;21130;51.728;8.748;2023-01-23T00:33:52;102167.72;;;-0.33;100.00
34925;BME280;21130;51.728;8.748;2023-01-23T00:36:20;102172.19;;;-0.32;100.00
34925;BME280;21130;51.728;8.748;2023-01-23T00:38:47;102169.31;;;-0.30;100.00
34925;BME280;21130;51.728;8.748;2023-01-23T00:41:13;102161.53;;;-0.35;100.00
34925;BME280;21130;51.728;8.748;2023-01-23T00:43:40;102166.00;;;-0.34;100.00
34925;BME280;21130;51.728;8.748;2023-01-23T00:46:07;102167.31;;;-0.28;100.00
34925;BME280;21130;51.728;8.748;2023-01-23T00:48:34;102163.84;;;-0.30;100.00
34925;BME280;21130;51.728;8.748;2023-01-23T00:51:00;102167.84;;;-0.34;100.00
34925;BME280;21130;51.728;8.748;2023-01-23T00:53:28;102164.28;;;-0.35;100.00
34925;BME280;21130;51.728;8.748;2023-01-23T00:55:54;102172.03;;;-0.30;100.00
34925;BME280;21130;51.728;8.748;2023-01-23T00:58:21;102174.25;;;-0.24;100.00
34925;BME280;21130;51.728;8.748;2023-01-23T01:00:47;102180.69;;;-0.25;100.00
34925;BME280;21130;51.728;8.748;2023-01-23T01:03:13;102177.84;;;-0.24;100.00
34925;BME280;21130;51.728;8.748;2023-01-23T01:05:40;102183.00;;;-0.20;100.00
34925;BME280;21130;51.728;8.748;2023-01-23T01:08:06;102175.50;;;-0.28;100.00
34925;BME280;21130;51.728;8.748;2023-01-23T01:10:34;102185.81;;;-0.32;100.00
34925;BME280;21130;51.728;8.748;2023-01-23T01:13:02;102184.22;;;-0.34;100.00
34925;BME280;21130;51.728;8.748;2023-01-23T01:15:29;102183.84;;;-0.30;100.00
34925;BME280;21130;51.728;8.748;2023-01-23T01:17:56;102180.38;;;-0.32;100.00
34925;BME280;21130;51.728;8.748;2023-01-23T01:20:24;102185.56;;;-0.29;100.00
34925;BME280;21130;51.728;8.748;2023-01-23T01:22:51;102185.66;;;-0.30;100.00
34925;BME280;21130;51.728;8.748;2023-01-23T01:25:18;102194.88;;;-0.31;100.00
34925;BME280;21130;51.728;8.748;2023-01-23T01:27:46;102197.59;;;-0.31;100.00
34925;BME280;21130;51.728;8.748;2023-01-23T01:30:14;102197.59;;;-0.31;100.00
34925;BME280;21130;51.728;8.748;2023-01-23T01:32:41;102198.81;;;-0.24;100.00
34925;BME280;21130;51.728;8.748;2023-01-23T01:35:09;102191.88;;;-0.28;100.00
34925;BME280;21130;51.728;8.748;2023-01-23T01:37:37;102190.50;;;-0.23;100.00
34925;BME280;21130;51.728;8.748;2023-01-23T01:40:06;102199.94;;;-0.27;100.00
34925;BME280;21130;51.728;8.748;2023-01-23T01:42:37;102207.09;;;-0.26;100.00
34925;BME280;21130;51.728;8.748;2023-01-23T01:45:53;102216.31;;;-0.27;100.00
34925;BME280;21130;51.728;8.748;2023-01-23T01:47:53;102217.91;;;-0.24;100.00
34925;BME280;21130;51.728;8.748;2023-01-23T01:50:20;102226.19;;;-0.26;100.00
34925;BME280;21130;51.728;8.748;2023-01-23T01:52:46;102217.63;;;-0.21;100.00
34925;BME280;21130;51.728;8.748;2023-01-23T01:55:13;102216.97;;;-0.13;100.00
34925;BME280;21130;51.728;8.748;2023-01-23T01:57:42;102220.09;;;-0.18;100.00
34925;BME280;21130;51.728;8.748;2023-01-23T02:00:13;102213.97;;;-0.10;100.00
34925;BME280;21130;51.728;8.748;2023-01-23T02:02:42;102221.09;;;-0.19;100.00
34925;BME280;21130;51.728;8.748;2023-01-23T02:05:12;102227.38;;;-0.07;100.00
34925;BME280;21130;51.728;8.748;2023-01-23T02:07:43;102216.22;;;-0.15;100.00
34925;BME280;21130;51.728;8.748;2023-01-23T02:10:11;102225.16;;;-0.13;100.00
34925;BME280;21130;51.728;8.748;2023-01-23T02:12:44;102219.56;;;-0.12;100.00
34925;BME280;21130;51.728;8.748;2023-01-23T02:15:12;102232.09;;;-0.09;100.00
34925;BME280;21130;51.728;8.748;2023-01-23T02:17:39;102228.06;;;-0.05;100.00
34925;BME280;21130;51.728;8.748;2023-01-23T02:20:11;102235.13;;;-0.03;100.00
34925;BME280;21130;51.728;8.748;2023-01-23T02:22:44;102233.97;;;-0.10;100.00
34925;BME280;21130;51.728;8.748;2023-01-23T02:25:25;102235.94;;;-0.12;100.00
34925;BME280;21130;51.728;8.748;2023-01-23T02:27:55;102232.56;;;-0.04;100.00
34925;BME280;21130;51.728;8.748;2023-01-23T02:30:22;102228.56;;;0.00;100.00
34925;BME280;21130;51.728;8.748;2023-01-23T02:32:48;102244.44;;;-0.05;100.00
34925;BME280;21130;51.728;8.748;2023-01-23T02:35:19;102244.44;;;-0.05;100.00
34925;BME280;21130;51.728;8.748;2023-01-23T02:37:51;102244.06;;;-0.01;100.00
34925;BME280;21130;51.728;8.748;2023-01-23T02:40:19;102247.69;;;0.00;100.00
34925;BME280;21130;51.728;8.748;2023-01-23T02:42:57;102253.25;;;-0.02;100.00
34925;BME280;21130;51.728;8.748;2023-01-23T02:45:24;102247.78;;;-0.02;100.00
34925;BME280;21130;51.728;8.748;2023-01-23T02:47:51;102248.78;;;-0.03;100.00
34925;BME280;21130;51.728;8.748;2023-01-23T02:50:18;102247.44;;;-0.08;100.00
34925;BME280;21130;51.728;8.748;2023-01-23T02:52:44;102255.91;;;-0.11;100.00
34925;BME280;21130;51.728;8.748;2023-01-23T02:55:11;102251.66;;;-0.04;100.00
34925;BME280;21130;51.728;8.748;2023-01-23T02:57:37;102249.91;;;-0.05;100.00
34925;BME280;21130;51.728;8.748;2023-01-23T03:00:07;102240.47;;;-0.01;100.00
34925;BME280;21130;51.728;8.748;2023-01-23T03:02:44;102246.38;;;0.04;100.00
34925;BME280;21130;51.728;8.748;2023-01-23T03:05:12;102245.81;;;0.01;100.00
34925;BME280;21130;51.728;8.748;2023-01-23T03:07:39;102246.28;;;0.06;100.00
34925;BME280;21130;51.728;8.748;2023-01-23T03:10:05;102244.22;;;-0.02;100.00
34925;BME280;21130;51.728;8.748;2023-01-23T03:12:32;102253.84;;;0.02;100.00
34925;BME280;21130;51.728;8.748;2023-01-23T03:14:59;102250.41;;;0.00;100.00
34925;BME280;21130;51.728;8.748;2023-01-23T03:17:27;102250.66;;;-0.03;100.00
34925;BME280;21130;51.728;8.748;2023-01-23T03:19:54;102246.19;;;-0.04;100.00
34925;BME280;21130;51.728;8.748;2023-01-23T03:22:21;102244.94;;;0.00;100.00
34925;BME280;21130;51.728;8.748;2023-01-23T03:24:48;102247.19;;;-0.05;100.00
34925;BME280;21130;51.728;8.748;2023-01-23T03:27:15;102256.50;;;-0.08;100.00
34925;BME280;21130;51.728;8.748;2023-01-23T03:29:41;102249.19;;;-0.07;100.00
34925;BME280;21130;51.728;8.748;2023-01-23T03:32:27;102245.56;;;-0.08;100.00
34925;BME280;21130;51.728;8.748;2023-01-23T03:34:53;102249.19;;;-0.07;100.00
34925;BME280;21130;51.728;8.748;2023-01-23T03:37:20;102252.88;;;0.03;100.00
34925;BME280;21130;51.728;8.748;2023-01-23T03:39:46;102254.22;;;-0.03;100.00
34925;BME280;21130;51.728;8.748;2023-01-23T03:42:32;102256.19;;;0.07;100.00
34925;BME280;21130;51.728;8.748;2023-01-23T03:44:59;102252.41;;;-0.02;100.00
34925;BME280;21130;51.728;8.748;2023-01-23T03:47:27;102261.06;;;0.03;100.00
34925;BME280;21130;51.728;8.748;2023-01-23T03:49:53;102268.50;;;0.01;100.00
34925;BME280;21130;51.728;8.748;2023-01-23T03:52:20;102265.31;;;-0.04;100.00
34925;BME280;21130;51.728;8.748;2023-01-23T03:54:46;102259.44;;;0.01;100.00
34925;BME280;21130;51.728;8.748;2023-01-23T03:57:13;102268.50;;;0.01;100.00
34925;BME280;21130;51.728;8.748;2023-01-23T03:59:39;102269.50;;;0.00;100.00
34925;BME280;21130;51.728;8.748;2023-01-23T04:02:05;102277.16;;;0.06;100.00
34925;BME280;21130;51.728;8.748;2023-01-23T04:04:33;102277.28;;;0.05;100.00
34925;BME280;21130;51.728;8.748;2023-01-23T04:07:01;102277.44;;;0.03;100.00
34925;BME280;21130;51.728;8.748;2023-01-23T04:09:28;102262.50;;;0.07;100.00
34925;BME280;21130;51.728;8.748;2023-01-23T04:11:54;102265.69;;;0.12;100.00
34925;BME280;21130;51.728;8.748;2023-01-23T04:14:21;102269.16;;;0.14;100.00
34925;BME280;21130;51.728;8.748;2023-01-23T04:16:48;102272.16;;;0.11;100.00
34925;BME280;21130;51.728;8.748;2023-01-23T04:19:15;102266.69;;;0.11;100.00
34925;BME280;21130;51.728;8.748;2023-01-23T04:21:45;102262.72;;;0.15;100.00
34925;BME280;21130;51.728;8.748;2023-01-23T04:24:12;102262.72;;;0.15;100.00
34925;BME280;21130;51.728;8.748;2023-01-23T04:26:39;102259.66;;;0.09;100.00
34925;BME280;21130;51.728;8.748;2023-01-23T04:29:06;102256.78;;;0.10;100.00
34925;BME280;21130;51.728;8.748;2023-01-23T04:31:32;102249.84;;;0.06;100.00
34925;BME280;21130;51.728;8.748;2023-01-23T04:33:59;102248.44;;;0.12;100.00
34925;BME280;21130;51.728;8.748;2023-01-23T04:36:26;102255.91;;;0.10;100.00
34925;BME280;21130;51.728;8.748;2023-01-23T04:38:54;102256.34;;;0.05;100.00
34925;BME280;21130;51.728;8.748;2023-01-23T04:41:22;102258.16;;;0.05;100.00
34925;BME280;21130;51.728;8.748;2023-01-23T04:43:49;102262.91;;;0.03;100.00
34925;BME280;21130;51.728;8.748;2023-01-23T04:46:15;102258.03;;;0.06;100.00
34925;BME280;21130;51.728;8.748;2023-01-23T04:48:42;102253.84;;;0.02;100.00
34925;BME280;21130;51.728;8.748;2023-01-23T04:51:08;102260.03;;;0.04;100.00
34925;BME280;21130;51.728;8.748;2023-01-23T04:53:35;102253.59;;;0.05;100.00
34925;BME280;21130;51.728;8.748;2023-01-23T04:56:03;102258.78;;;0.08;100.00
34925;BME280;21130;51.728;8.748;2023-01-23T04:58:30;102258.25;;;0.14;100.00
34925;BME280;21130;51.728;8.748;2023-01-23T05:01:00;102257.78;;;0.09;100.00
34925;BME280;21130;51.728;8.748;2023-01-23T05:03:27;102265.84;;;0.11;100.00
34925;BME280;21130;51.728;8.748;2023-01-23T05:05:53;102262.72;;;0.15;100.00
34925;BME280;21130;51.728;8.748;2023-01-23T05:08:20;102256.84;;;0.20;100.00
34925;BME280;21130;51.728;8.748;2023-01-23T05:10:46;102265.28;;;0.17;100.00
34925;BME280;21130;51.728;8.748;2023-01-23T05:13:14;102265.84;;;0.11;100.00
34925;BME280;21130;51.728;8.748;2023-01-23T05:15:40;102270.16;;;0.13;100.00
34925;BME280;21130;51.728;8.748;2023-01-23T05:18:07;102276.59;;;0.12;100.00
34925;BME280;21130;51.728;8.748;2023-01-23T05:20:33;102277.22;;;0.16;100.00
34925;BME280;21130;51.728;8.748;2023-01-23T05:23:00;102280.94;;;0.15;100.00
34925;BME280;21130;51.728;8.748;2023-01-23T05:25:27;102277.06;;;0.17;100.00
34925;BME280;21130;51.728;8.748;2023-01-23T05:27:54;102280.34;;;0.11;100.00
34925;BME280;21130;51.728;8.748;2023-01-23T05:30:22;102268.75;;;0.19;100.00
34925;BME280;21130;51.728;8.748;2023-01-23T05:32:49;102265.56;;;0.14;100.00
34925;BME280;21130;51.728;8.748;2023-01-23T05:35:16;102265.66;;;0.03;100.00
34925;BME280;21130;51.728;8.748;2023-01-23T05:37:42;102277.44;;;0.03;100.00
34925;BME280;21130;51.728;8.748;2023-01-23T05:40:10;102274.47;;;-0.05;100.00
34925;BME280;21130;51.728;8.748;2023-01-23T05:42:38;102274.91;;;-0.10;100.00
34925;BME280;21130;51.728;8.748;2023-01-23T05:45:05;102276.88;;;-0.12;100.00
34925;BME280;21130;51.728;8.748;2023-01-23T05:47:33;102270.69;;;-0.14;100.00
34925;BME280;21130;51.728;8.748;2023-01-23T05:50:00;102273.34;;;-0.24;100.00
34925;BME280;21130;51.728;8.748;2023-01-23T05:52:26;102281.56;;;-0.35;100.00
34925;BME280;21130;51.728;8.748;2023-01-23T05:54:53;102282.34;;;-0.44;100.00
34925;BME280;21130;51.728;8.748;2023-01-23T05:57:19;102293.19;;;-0.33;100.00
34925;BME280;21130;51.728;8.748;2023-01-23T05:59:46;102305.88;;;-0.32;100.00
34925;BME280;21130;51.728;8.748;2023-01-23T06:02:12;102298.41;;;-0.30;100.00
34925;BME280;21130;51.728;8.748;2023-01-23T06:04:40;102310.56;;;-0.23;100.00
34925;BME280;21130;51.728;8.748;2023-01-23T06:07:12;102309.06;;;-0.27;100.00
34925;BME280;21130;51.728;8.748;2023-01-23T06:09:39;102306.44;;;-0.17;100.00
34925;BME280;21130;51.728;8.748;2023-01-23T06:12:06;102303.81;;;-0.18;100.00
34925;BME280;21130;51.728;8.748;2023-01-23T06:14:32;102309.53;;;-0.22;100.00
34925;BME280;21130;51.728;8.748;2023-01-23T06:16:58;102312.38;;;-0.23;100.00
34925;BME280;21130;51.728;8.748;2023-01-23T06:19:25;102316.13;;;-0.24;100.00
34925;BME280;21130;51.728;8.748;2023-01-23T06:21:53;102321.09;;;-0.29;100.00
34925;BME280;21130;51.728;8.748;2023-01-23T06:24:20;102329.03;;;-0.26;100.00
34925;BME280;21130;51.728;8.748;2023-01-23T06:26:46;102328.38;;;-0.18;100.00
34925;BME280;21130;51.728;8.748;2023-01-23T06:29:12;102328.25;;;-0.17;100.00
34925;BME280;21130;51.728;8.748;2023-01-23T06:31:39;102333.72;;;-0.17;100.00
34925;BME280;21130;51.728;8.748;2023-01-23T06:34:06;102332.63;;;-0.26;100.00
34925;BME280;21130;51.728;8.748;2023-01-23T06:36:32;102330.50;;;-0.22;100.00
34925;BME280;21130;51.728;8.748;2023-01-23T06:39:01;102325.91;;;-0.22;100.00
34925;BME280;21130;51.728;8.748;2023-01-23T06:41:28;102329.38;;;-0.19;100.00
34925;BME280;21130;51.728;8.748;2023-01-23T06:43:54;102332.72;;;-0.16;100.00
34925;BME280;21130;51.728;8.748;2023-01-23T06:46:20;102347.38;;;-0.17;100.00
34925;BME280;21130;51.728;8.748;2023-01-23T06:48:47;102343.03;;;-0.19;100.00
34925;BME280;21130;51.728;8.748;2023-01-23T06:51:13;102341.75;;;-0.15;100.00
34925;BME280;21130;51.728;8.748;2023-01-23T06:53:40;102358.41;;;-0.18;100.00
34925;BME280;21130;51.728;8.748;2023-01-23T06:56:08;102365.13;;;-0.23;100.00
34925;BME280;21130;51.728;8.748;2023-01-23T06:58:35;102368.44;;;-0.19;100.00
34925;BME280;21130;51.728;8.748;2023-01-23T07:01:07;102374.50;;;-0.15;100.00
34925;BME280;21130;51.728;8.748;2023-01-23T07:03:34;102380.22;;;-0.18;100.00
34925;BME280;21130;51.728;8.748;2023-01-23T07:06:00;102380.59;;;-0.23;100.00
34925;BME280;21130;51.728;8.748;2023-01-23T07:08:27;102388.16;;;-0.15;100.00
34925;BME280;21130;51.728;8.748;2023-01-23T07:10:54;102389.38;;;-0.08;100.00
34925;BME280;21130;51.728;8.748;2023-01-23T07:13:22;102404.50;;;-0.04;100.00
34925;BME280;21130;51.728;8.748;2023-01-23T07:15:49;102397.28;;;-0.05;100.00
34925;BME280;21130;51.728;8.748;2023-01-23T07:18:15;102398.19;;;-0.16;100.00
34925;BME280;21130;51.728;8.748;2023-01-23T07:20:42;102397.34;;;-0.16;100.00
34925;BME280;21130;51.728;8.748;2023-01-23T07:23:09;102396.97;;;-0.12;100.00
34925;BME280;21130;51.728;8.748;2023-01-23T07:25:36;102394.81;;;-0.08;100.00
34925;BME280;21130;51.728;8.748;2023-01-23T07:28:03;102408.00;;;-0.13;100.00
34925;BME280;21130;51.728;8.748;2023-01-23T07:30:32;102409.22;;;-0.06;100.00
34925;BME280;21130;51.728;8.748;2023-01-23T07:32:58;102404.78;;;-0.07;100.00
34925;BME280;21130;51.728;8.748;2023-01-23T07:35:25;102409.22;;;-0.06;100.00
34925;BME280;21130;51.728;8.748;2023-01-23T07:37:52;102410.81;;;-0.04;100.00
34925;BME280;21130;51.728;8.748;2023-01-23T07:40:18;102413.28;;;-0.01;100.00
34925;BME280;21130;51.728;8.748;2023-01-23T07:42:45;102419.38;;;0.03;100.00
34925;BME280;21130;51.728;8.748;2023-01-23T07:45:12;102423.09;;;0.02;100.00
34925;BME280;21130;51.728;8.748;2023-01-23T07:47:40;102428.91;;;0.09;100.00
34925;BME280;21130;51.728;8.748;2023-01-23T07:50:08;102417.13;;;0.08;100.00
34925;BME280;21130;51.728;8.748;2023-01-23T07:52:35;102421.84;;;0.06;100.00
34925;BME280;21130;51.728;8.748;2023-01-23T07:55:03;102424.19;;;0.11;100.00
34925;BME280;21130;51.728;8.748;2023-01-23T07:57:30;102418.59;;;0.12;100.00
34925;BME280;21130;51.728;8.748;2023-01-23T07:59:58;102426.28;;;0.18;100.00
34925;BME280;21130;51.728;8.748;2023-01-23T08:02:24;102425.78;;;0.13;100.00
34925;BME280;21130;51.728;8.748;2023-01-23T08:04:52;102427.00;;;0.20;100.00
34925;BME280;21130;51.728;8.748;2023-01-23T08:07:18;102435.41;;;0.29;100.00
34925;BME280;21130;51.728;8.748;2023-01-23T08:09:44;102437.94;;;0.20;100.00
34925;BME280;21130;51.728;8.748;2023-01-23T08:12:11;102433.44;;;0.19;100.00
34925;BME280;21130;51.728;8.748;2023-01-23T08:14:38;102438.75;;;0.32;100.00
34925;BME280;21130;51.728;8.748;2023-01-23T08:17:05;102437.59;;;0.35;100.00
34925;BME280;21130;51.728;8.748;2023-01-23T08:19:32;102444.09;;;0.34;100.00
34925;BME280;21130;51.728;8.748;2023-01-23T08:21:59;102444.81;;;0.36;100.00
34925;BME280;21130;51.728;8.748;2023-01-23T08:24:26;102445.88;;;0.45;100.00
34925;BME280;21130;51.728;8.748;2023-01-23T08:26:52;102451.50;;;0.43;100.00
34925;BME280;21130;51.728;8.748;2023-01-23T08:29:19;102444.09;;;0.55;100.00
34925;BME280;21130;51.728;8.748;2023-01-23T08:31:45;102442.19;;;0.46;100.00
34925;BME280;21130;51.728;8.748;2023-01-23T08:34:12;102438.63;;;0.55;100.00
34925;BME280;21130;51.728;8.748;2023-01-23T08:36:39;102442.84;;;0.59;100.00
34925;BME280;21130;51.728;8.748;2023-01-23T08:39:06;102435.19;;;0.53;100.00
34925;BME280;21130;51.728;8.748;2023-01-23T08:41:33;102444.44;;;0.61;100.00
34925;BME280;21130;51.728;8.748;2023-01-23T08:43:59;102438.13;;;0.61;100.00
34925;BME280;21130;51.728;8.748;2023-01-23T08:46:26;102445.47;;;0.60;100.00
34925;BME280;21130;51.728;8.748;2023-01-23T08:48:53;102444.25;;;0.74;100.00
34925;BME280;21130;51.728;8.748;2023-01-23T08:51:19;102436.25;;;0.82;100.00
34925;BME280;21130;51.728;8.748;2023-01-23T08:53:46;102441.00;;;0.80;100.00
34925;BME280;21130;51.728;8.748;2023-01-23T08:56:15;102439.13;;;0.81;100.00
34925;BME280;21130;51.728;8.748;2023-01-23T08:58:41;102441.78;;;0.92;100.00
34925;BME280;21130;51.728;8.748;2023-01-23T09:01:10;102439.59;;;0.86;100.00
34925;BME280;21130;51.728;8.748;2023-01-23T09:03:36;102442.19;;;0.88;100.00
34925;BME280;21130;51.728;8.748;2023-01-23T09:06:03;102452.94;;;1.00;100.00
34925;BME280;21130;51.728;8.748;2023-01-23T09:08:30;102454.19;;;0.96;100.00
34925;BME280;21130;51.728;8.748;2023-01-23T09:10:59;102444.91;;;1.08;100.00
34925;BME280;21130;51.728;8.748;2023-01-23T09:13:27;102449.09;;;1.13;100.00
34925;BME280;21130;51.728;8.748;2023-01-23T09:15:53;102440.38;;;1.19;100.00
34925;BME280;21130;51.728;8.748;2023-01-23T09:18:20;102452.28;;;1.18;100.00
34925;BME280;21130;51.728;8.748;2023-01-23T09:20:47;102456.22;;;1.25;100.00
34925;BME280;21130;51.728;8.748;2023-01-23T09:23:14;102462.72;;;1.24;100.00
34925;BME280;21130;51.728;8.748;2023-01-23T09:25:51;102464.63;;;1.33;100.00
34925;BME280;21130;51.728;8.748;2023-01-23T09:28:17;102463.94;;;1.41;100.00
34925;BME280;21130;51.728;8.748;2023-01-23T09:31:04;102468.22;;;1.34;100.00
34925;BME280;21130;51.728;8.748;2023-01-23T09:33:31;102478.03;;;1.36;100.00
34925;BME280;21130;51.728;8.748;2023-01-23T09:35:57;102478.78;;;1.38;100.00
34925;BME280;21130;51.728;8.748;2023-01-23T09:38:25;102487.16;;;1.46;100.00
34925;BME280;21130;51.728;8.748;2023-01-23T09:40:53;102471.47;;;1.48;100.00
34925;BME280;21130;51.728;8.748;2023-01-23T09:43:23;102474.34;;;1.47;100.00
34925;BME280;21130;51.728;8.748;2023-01-23T09:45:58;102480.81;;;1.46;100.00
34925;BME280;21130;51.728;8.748;2023-01-23T09:48:30;102483.41;;;1.47;100.00
34925;BME280;21130;51.728;8.748;2023-01-23T09:51:01;102494.69;;;1.54;100.00
34925;BME280;21130;51.728;8.748;2023-01-23T09:53:35;102496.69;;;1.52;100.00
34925;BME280;21130;51.728;8.748;2023-01-23T09:56:05;102486.53;;;1.43;100.00
34925;BME280;21130;51.728;8.748;2023-01-23T09:58:38;102493.31;;;1.39;100.00
34925;BME280;21130;51.728;8.748;2023-01-23T10:01:10;102500.91;;;1.35;100.00
34925;BME280;21130;51.728;8.748;2023-01-23T10:03:39;102488.56;;;1.41;100.00
34925;BME280;21130;51.728;8.748;2023-01-23T10:06:17;102500.66;;;1.38;100.00
34925;BME280;21130;51.728;8.748;2023-01-23T10:08:55;102488.69;;;1.39;100.00
34925;BME280;21130;51.728;8.748;2023-01-23T10:11:38;102494.03;;;1.41;100.00
34925;BME280;21130;51.728;8.748;2023-01-23T10:14:20;102501.81;;;1.45;100.00
34925;BME280;21130;51.728;8.748;2023-01-23T10:17:01;102500.97;;;1.45;100.00
34925;BME280;21130;51.728;8.748;2023-01-23T10:19:42;102496.50;;;1.44;100.00
34925;BME280;21130;51.728;8.748;2023-01-23T10:22:23;102493.94;;;1.52;100.00
34925;BME280;21130;51.728;8.748;2023-01-23T10:24:56;102485.72;;;1.52;100.00
34925;BME280;21130;51.728;8.748;2023-01-23T10:27:28;102488.41;;;1.42;100.00
34925;BME280;21130;51.728;8.748;2023-01-23T10:29:58;102483.50;;;1.36;100.00
34925;BME280;21130;51.728;8.748;2023-01-23T10:32:28;102487.44;;;1.43;100.00
34925;BME280;21130;51.728;8.748;2023-01-23T10:34:59;102488.25;;;1.34;100.00
34925;BME280;21130;51.728;8.748;2023-01-23T10:37:36;102480.09;;;1.44;100.00
34925;BME280;21130;51.728;8.748;2023-01-23T10:40:08;102483.50;;;1.36;100.00
34925;BME280;21130;51.728;8.748;2023-01-23T10:42:35;102482.53;;;1.47;100.00
34925;BME280;21130;51.728;8.748;2023-01-23T10:45:02;102470.75;;;1.46;100.00
34925;BME280;21130;51.728;8.748;2023-01-23T10:47:32;102479.94;;;1.45;100.00
34925;BME280;21130;51.728;8.748;2023-01-23T10:50:02;102482.47;;;1.58;100.00
34925;BME280;21130;51.728;8.748;2023-01-23T10:52:36;102486.50;;;1.64;100.00
34925;BME280;21130;51.728;8.748;2023-01-23T10:55:05;102491.59;;;1.68;100.00
34925;BME280;21130;51.728;8.748;2023-01-23T10:57:52;102480.09;;;1.84;100.00
34925;BME280;21130;51.728;8.748;2023-01-23T11:00:21;102485.25;;;1.78;100.00
34925;BME280;21130;51.728;8.748;2023-01-23T11:02:51;102496.16;;;1.58;100.00
34925;BME280;21130;51.728;8.748;2023-01-23T11:05:35;102488.97;;;1.67;100.00
34925;BME280;21130;51.728;8.748;2023-01-23T11:08:03;102481.44;;;1.59;100.00
34925;BME280;21130;51.728;8.748;2023-01-23T11:10:46;102485.78;;;1.62;100.00
34925;BME280;21130;51.728;8.748;2023-01-23T11:13:24;102477.97;;;1.57;100.00
34925;BME280;21130;51.728;8.748;2023-01-23T11:15:51;102475.41;;;1.65;100.00
34925;BME280;21130;51.728;8.748;2023-01-23T11:18:30;102474.44;;;1.66;100.00
34925;BME280;21130;51.728;8.748;2023-01-23T11:20:59;102481.66;;;1.77;100.00
34925;BME280;21130;51.728;8.748;2023-01-23T11:23:28;102479.22;;;1.74;100.00
34925;BME280;21130;51.728;8.748;2023-01-23T11:25:56;102470.44;;;1.80;100.00
34925;BME280;21130;51.728;8.748;2023-01-23T11:28:24;102473.47;;;1.87;100.00
34925;BME280;21130;51.728;8.748;2023-01-23T11:30:55;102470.47;;;1.90;100.00
34925;BME280;21130;51.728;8.748;2023-01-23T11:33:33;102456.22;;;1.96;100.00
34925;BME280;21130;51.728;8.748;2023-01-23T11:36:11;102451.59;;;1.97;100.00
34925;BME280;21130;51.728;8.748;2023-01-23T11:38:46;102450.47;;;1.99;100.00
34925;BME280;21130;51.728;8.748;2023-01-23T11:41:16;102458.41;;;2.12;100.00
34925;BME280;21130;51.728;8.748;2023-01-23T11:43:42;102452.53;;;2.26;100.00
34925;BME280;21130;51.728;8.748;2023-01-23T11:46:24;102454.38;;;2.06;100.00
34925;BME280;21130;51.728;8.748;2023-01-23T11:49:04;102453.31;;;1.98;100.00
34925;BME280;21130;51.728;8.748;2023-01-23T11:51:37;102449.47;;;2.20;100.00
34925;BME280;21130;51.728;8.748;2023-01-23T11:54:29;102449.34;;;2.21;100.00
34925;BME280;21130;51.728;8.748;2023-01-23T11:57:08;102444.41;;;2.15;100.00
34925;BME280;21130;51.728;8.748;2023-01-23T11:59:55;102447.88;;;2.07;100.00
34925;BME280;21130;51.728;8.748;2023-01-23T12:02:51;102452.06;;;2.11;100.00
34925;BME280;21130;51.728;8.748;2023-01-23T12:05:44;102442.13;;;2.01;100.00
34925;BME280;21130;51.728;8.748;2023-01-23T12:08:21;102444.41;;;2.05;100.00
34925;BME280;21130;51.728;8.748;2023-01-23T12:10:57;102446.16;;;2.16;100.00
34925;BME280;21130;51.728;8.748;2023-01-23T12:13:42;102448.72;;;2.08;100.00
34925;BME280;21130;51.728;8.748;2023-01-23T12:16:19;102452.50;;;2.07;100.00
34925;BME280;21130;51.728;8.748;2023-01-23T12:19:03;102442.84;;;2.12;100.00
34925;BME280;21130;51.728;8.748;2023-01-23T12:21:35;102446.75;;;2.20;100.00
34925;BME280;21130;51.728;8.748;2023-01-23T12:24:15;102445.00;;;2.09;100.00
34925;BME280;21130;51.728;8.748;2023-01-23T12:26:55;102437.66;;;2.19;100.00
34925;BME280;21130;51.728;8.748;2023-01-23T12:29:35;102434.63;;;2.22;100.00
34925;BME280;21130;51.728;8.748;2023-01-23T12:32:14;102445.72;;;2.30;100.00
34925;BME280;21130;51.728;8.748;2023-01-23T12:34:59;102437.50;;;2.30;100.00
34925;BME280;21130;51.728;8.748;2023-01-23T12:37:41;102440.72;;;2.26;100.00
34925;BME280;21130;51.728;8.748;2023-01-23T12:40:15;102448.22;;;2.33;100.00
34925;BME280;21130;51.728;8.748;2023-01-23T12:42:50;102444.88;;;2.30;100.00
34925;BME280;21130;51.728;8.748;2023-01-23T12:45:21;102447.91;;;2.17;100.00
34925;BME280;21130;51.728;8.748;2023-01-23T12:47:54;102457.16;;;2.26;100.00
34925;BME280;21130;51.728;8.748;2023-01-23T12:50:37;102455.28;;;2.26;100.00
34925;BME280;21130;51.728;8.748;2023-01-23T12:53:07;102453.81;;;2.22;100.00
34925;BME280;21130;51.728;8.748;2023-01-23T12:55:38;102453.38;;;2.27;100.00
34925;BME280;21130;51.728;8.748;2023-01-23T12:58:11;102458.53;;;2.10;100.00